Time;durP1;ratioP1;P1;durP2;ratioP2;P2;SDS_P1;SDS_P2;PMS_P1;PMS_P2;Temp;Humidity;BMP_temperature;BMP_pressure;BME280_temperature;BME280_humidity;BME280_pressure;Samples;Min_cycle;Max_cycle;Signal;HPM_P1;HPM_P2
2023/08/27 00:00:58;;;;;;;3.30;2.25;;;23.50;68.50;;;;;;4998777;28;20048;-68
2023/08/27 00:03:23;;;;;;;2.40;2.15;;;23.50;68.50;;;;;;4996476;28;20030;-67
2023/08/27 00:05:49;;;;;;;3.25;2.58;;;23.50;68.40;;;;;;4994779;28;20116;-67
2023/08/27 00:08:14;;;;;;;3.75;2.55;;;23.40;68.50;;;;;;4980725;28;20041;-67
2023/08/27 00:10:40;;;;;;;2.65;2.28;;;23.40;68.50;;;;;;4995495;28;20119;-67
2023/08/27 00:13:05;;;;;;;3.30;2.35;;;23.50;68.50;;;;;;4999252;28;20050;-67
2023/08/27 00:15:31;;;;;;;2.53;2.20;;;23.50;68.30;;;;;;4983347;28;20065;-68
2023/08/27 00:17:56;;;;;;;2.28;1.90;;;23.50;68.90;;;;;;5001888;28;20239;-68
2023/08/27 00:20:22;;;;;;;3.35;1.92;;;23.50;68.10;;;;;;5001809;28;20029;-68
2023/08/27 00:22:47;;;;;;;4.00;2.33;;;23.50;68.10;;;;;;4986487;28;21146;-67
2023/08/27 00:25:13;;;;;;;2.20;2.00;;;23.50;68.20;;;;;;5005833;28;20045;-67
2023/08/27 00:27:38;;;;;;;3.22;2.10;;;23.50;68.30;;;;;;5003556;28;20045;-68
2023/08/27 00:30:05;;;;;;;2.40;2.03;;;23.50;68.20;;;;;;5006354;28;20067;-67
2023/08/27 00:32:33;;;;;;;2.78;1.90;;;23.50;68.20;;;;;;4990416;28;20119;-67
2023/08/27 00:34:59;;;;;;;3.92;2.47;;;23.50;68.30;;;;;;5003509;28;20138;-67
2023/08/27 00:37:25;;;;;;;2.15;1.90;;;23.50;68.30;;;;;;5006517;28;20022;-68
2023/08/27 00:39:50;;;;;;;2.38;1.95;;;23.50;68.20;;;;;;5003781;28;20062;-67
2023/08/27 00:42:16;;;;;;;3.60;1.83;;;23.40;67.90;;;;;;5008772;28;20432;-67
2023/08/27 00:44:42;;;;;;;2.38;2.05;;;23.40;68.10;;;;;;5006071;28;20435;-67
2023/08/27 00:47:08;;;;;;;2.63;1.60;;;23.40;68.10;;;;;;5007123;28;20033;-68
2023/08/27 00:49:34;;;;;;;2.30;2.10;;;23.40;68.00;;;;;;5006205;28;20088;-67
2023/08/27 00:52:01;;;;;;;2.90;2.10;;;23.50;68.20;;;;;;5007339;28;20050;-68
2023/08/27 00:54:27;;;;;;;4.07;2.13;;;23.40;68.20;;;;;;5006182;28;20037;-66
2023/08/27 00:56:53;;;;;;;2.55;2.10;;;23.40;68.30;;;;;;5005360;28;20030;-67
2023/08/27 00:59:20;;;;;;;2.00;1.80;;;23.40;68.30;;;;;;4994610;28;20500;-67
2023/08/27 01:01:45;;;;;;;3.70;2.00;;;23.40;68.40;;;;;;4997599;28;20497;-67
2023/08/27 01:04:11;;;;;;;2.70;1.80;;;23.40;68.50;;;;;;4999433;28;20025;-68
2023/08/27 01:06:37;;;;;;;3.05;1.80;;;23.40;68.30;;;;;;5003809;28;20042;-67
2023/08/27 01:09:10;;;;;;;2.20;1.65;;;23.40;68.50;;;;;;5007348;28;20076;-67
2023/08/27 01:12:14;;;;;;;2.10;1.63;;;23.40;68.30;;;;;;5004840;28;20053;-67
2023/08/27 01:14:46;;;;;;;2.47;1.92;;;23.40;68.60;;;;;;5000606;28;20042;-68
2023/08/27 01:17:15;;;;;;;3.65;1.85;;;23.50;68.20;;;;;;4990080;28;20513;-63
2023/08/27 01:19:41;;;;;;;1.60;1.48;;;23.40;68.20;;;;;;5003580;28;20084;-65
2023/08/27 01:22:07;;;;;;;2.42;1.90;;;23.40;68.40;;;;;;5001695;28;20172;-64
2023/08/27 01:24:32;;;;;;;3.92;2.15;;;23.40;68.20;;;;;;5000664;28;20034;-63
2023/08/27 01:27:22;;;;;;;2.28;2.00;;;23.40;68.20;;;;;;4984136;28;20108;-65
2023/08/27 01:29:53;;;;;;;2.38;2.00;;;23.40;68.20;;;;;;4998537;28;20045;-66
2023/08/27 01:32:29;;;;;;;2.80;1.48;;;23.50;68.20;;;;;;4999509;28;20113;-67
2023/08/27 01:34:56;;;;;;;2.53;1.88;;;23.50;68.10;;;;;;5001067;28;20036;-68
2023/08/27 01:37:22;;;;;;;2.20;1.60;;;23.40;68.10;;;;;;5003059;28;20440;-68
2023/08/27 01:40:00;;;;;;;3.50;1.92;;;23.40;67.90;;;;;;4999510;28;20030;-67
2023/08/27 01:42:27;;;;;;;2.00;1.50;;;23.40;67.90;;;;;;4999875;28;20448;-67
2023/08/27 01:44:56;;;;;;;2.25;1.60;;;23.40;68.50;;;;;;5005997;28;20068;-67
2023/08/27 01:47:21;;;;;;;2.78;1.42;;;23.40;67.90;;;;;;5007362;28;20040;-68
2023/08/27 01:49:48;;;;;;;2.05;1.73;;;23.40;67.90;;;;;;4999334;28;20038;-67
2023/08/27 01:52:14;;;;;;;3.22;1.52;;;23.40;68.00;;;;;;5002274;28;20085;-67
2023/08/27 01:54:39;;;;;;;1.45;1.27;;;23.40;68.00;;;;;;5002532;28;20124;-68
2023/08/27 01:57:05;;;;;;;3.10;1.48;;;23.40;68.10;;;;;;4982091;28;20022;-67
2023/08/27 01:59:31;;;;;;;2.45;1.58;;;23.40;68.10;;;;;;5004078;28;20115;-67
2023/08/27 02:01:56;;;;;;;2.25;1.48;;;23.40;68.10;;;;;;5005510;28;20050;-67
2023/08/27 02:04:22;;;;;;;1.73;1.40;;;23.40;68.80;;;;;;4999865;28;20119;-67
2023/08/27 02:06:48;;;;;;;1.83;1.50;;;23.40;68.20;;;;;;4997779;28;20069;-66
2023/08/27 02:09:13;;;;;;;1.95;1.45;;;23.30;68.20;;;;;;4989268;28;20539;-67
2023/08/27 02:11:39;;;;;;;1.77;1.40;;;23.40;68.20;;;;;;4989021;28;20030;-68
2023/08/27 02:14:04;;;;;;;3.10;1.50;;;23.40;68.30;;;;;;5006410;28;20428;-67
2023/08/27 02:16:31;;;;;;;1.90;1.48;;;23.40;68.20;;;;;;5006797;28;20045;-67
2023/08/27 02:18:57;;;;;;;1.95;1.67;;;23.40;68.20;;;;;;5005822;28;20121;-67
2023/08/27 02:21:23;;;;;;;2.67;1.80;;;23.30;68.40;;;;;;4996186;28;20147;-67
2023/08/27 02:23:48;;;;;;;2.53;1.88;;;23.40;68.30;;;;;;5003430;28;20057;-66
2023/08/27 02:26:14;;;;;;;2.03;1.65;;;23.40;68.40;;;;;;4997587;28;20594;-67
2023/08/27 02:28:39;;;;;;;2.13;1.42;;;23.40;68.20;;;;;;4997868;28;20484;-67
2023/08/27 02:31:05;;;;;;;2.58;1.60;;;23.30;68.30;;;;;;4996903;28;20662;-68
2023/08/27 02:33:31;;;;;;;2.50;1.83;;;23.40;68.20;;;;;;4993442;28;20029;-67
2023/08/27 02:35:56;;;;;;;2.50;1.50;;;23.40;68.10;;;;;;4996740;28;20105;-67
2023/08/27 02:38:22;;;;;;;2.40;1.95;;;23.40;68.20;;;;;;4995813;28;20034;-67
2023/08/27 02:40:47;;;;;;;2.45;1.70;;;23.40;68.10;;;;;;4999055;28;20974;-66
2023/08/27 02:43:13;;;;;;;1.77;1.67;;;23.40;68.10;;;;;;5001061;28;20042;-68
2023/08/27 02:45:39;;;;;;;3.55;2.08;;;23.40;68.10;;;;;;4997631;28;20034;-66
2023/08/27 02:48:04;;;;;;;2.28;1.98;;;23.40;68.00;;;;;;4999579;28;20041;-67
2023/08/27 02:50:30;;;;;;;3.92;1.75;;;23.30;68.00;;;;;;4980551;28;20034;-66
2023/08/27 02:52:55;;;;;;;2.15;1.85;;;23.40;68.00;;;;;;4998441;28;20135;-67
2023/08/27 02:55:21;;;;;;;1.73;1.50;;;23.40;67.90;;;;;;4998104;28;20118;-67
2023/08/27 02:57:46;;;;;;;1.60;1.50;;;23.30;67.80;;;;;;4982034;28;20133;-67
2023/08/27 03:00:13;;;;;;;2.40;2.05;;;23.30;67.80;;;;;;5002283;28;20539;-67
2023/08/27 03:02:38;;;;;;;2.20;2.00;;;23.30;67.90;;;;;;5004407;28;20033;-67
2023/08/27 03:05:05;;;;;;;4.93;2.22;;;23.30;68.10;;;;;;4983789;28;20094;-67
2023/08/27 03:07:30;;;;;;;2.05;1.85;;;23.30;68.10;;;;;;5002169;28;20065;-66
2023/08/27 03:09:56;;;;;;;2.25;2.05;;;23.30;68.20;;;;;;5003010;28;20057;-67
2023/08/27 03:12:22;;;;;;;2.38;2.10;;;23.30;68.20;;;;;;5003013;28;20034;-68
2023/08/27 03:14:48;;;;;;;2.60;2.40;;;23.30;68.20;;;;;;5003132;28;21761;-67
2023/08/27 03:17:13;;;;;;;2.75;2.10;;;23.20;68.20;;;;;;4982650;28;20034;-68
2023/08/27 03:19:39;;;;;;;2.30;1.70;;;23.20;68.10;;;;;;4985522;28;20493;-69
2023/08/27 03:22:04;;;;;;;3.47;2.25;;;23.20;68.10;;;;;;5006584;28;20103;-67
2023/08/27 03:24:30;;;;;;;2.45;2.17;;;23.20;68.20;;;;;;4982263;28;20030;-67
2023/08/27 03:26:55;;;;;;;2.80;2.30;;;23.20;68.40;;;;;;4982073;28;20081;-67
2023/08/27 03:29:21;;;;;;;2.20;2.00;;;23.30;68.60;;;;;;4985284;28;20084;-68
2023/08/27 03:31:47;;;;;;;3.50;2.08;;;23.20;68.60;;;;;;5002433;28;20670;-67
2023/08/27 03:34:13;;;;;;;3.20;2.00;;;23.20;68.20;;;;;;4987777;28;20080;-68
2023/08/27 03:36:39;;;;;;;2.78;2.25;;;23.20;68.30;;;;;;4999709;28;20121;-68
2023/08/27 03:39:05;;;;;;;4.43;2.22;;;23.20;68.10;;;;;;4988448;28;20065;-68
2023/08/27 03:41:31;;;;;;;2.88;2.30;;;23.20;68.30;;;;;;5002252;28;20668;-67
2023/08/27 03:43:57;;;;;;;4.20;2.70;;;23.20;68.40;;;;;;4999772;28;20694;-66
2023/08/27 03:46:22;;;;;;;3.30;2.15;;;23.20;68.40;;;;;;4985472;28;20222;-67
2023/08/27 03:48:48;;;;;;;2.88;2.00;;;23.20;68.40;;;;;;5000112;28;20066;-68
2023/08/27 03:51:14;;;;;;;3.03;2.33;;;23.20;68.30;;;;;;4984059;28;20117;-68
2023/08/27 03:53:40;;;;;;;3.25;2.40;;;23.20;68.40;;;;;;5003237;28;20022;-67
2023/08/27 03:56:05;;;;;;;3.28;2.55;;;23.20;68.20;;;;;;5004271;28;20022;-67
2023/08/27 03:58:31;;;;;;;2.38;2.17;;;23.20;68.40;;;;;;5000436;28;20117;-67
2023/08/27 04:00:57;;;;;;;2.20;2.00;;;23.20;68.30;;;;;;4998473;28;20022;-68
2023/08/27 04:03:23;;;;;;;2.53;2.30;;;23.20;68.10;;;;;;5007802;28;20050;-67
2023/08/27 04:05:49;;;;;;;2.47;2.25;;;23.20;68.10;;;;;;4991860;28;20038;-68
2023/08/27 04:08:18;;;;;;;2.38;2.17;;;23.20;68.10;;;;;;4990339;28;20793;-66
2023/08/27 04:10:50;;;;;;;3.17;2.30;;;23.20;68.10;;;;;;4986792;28;20453;-67
2023/08/27 04:13:17;;;;;;;3.22;2.85;;;23.20;68.80;;;;;;5004789;28;20129;-67
2023/08/27 04:15:44;;;;;;;4.90;3.05;;;23.10;68.90;;;;;;4983337;28;20036;-68
2023/08/27 04:18:09;;;;;;;3.80;2.38;;;23.10;68.80;;;;;;5001792;28;20023;-68
2023/08/27 04:20:35;;;;;;;2.92;2.47;;;23.20;68.50;;;;;;5005781;28;20041;-67
2023/08/27 04:23:01;;;;;;;2.90;2.58;;;23.20;68.70;;;;;;5005040;28;20041;-67
2023/08/27 04:25:27;;;;;;;4.25;2.45;;;23.20;68.70;;;;;;5002822;28;20080;-67
2023/08/27 04:27:52;;;;;;;3.15;2.60;;;23.20;68.60;;;;;;5008434;28;20034;-67
2023/08/27 04:30:18;;;;;;;3.42;2.38;;;23.20;68.50;;;;;;5008106;28;20030;-67
2023/08/27 04:32:43;;;;;;;3.40;2.95;;;23.10;68.40;;;;;;5000765;28;20629;-68
2023/08/27 04:35:09;;;;;;;3.30;2.78;;;23.10;68.50;;;;;;5004884;28;20499;-67
2023/08/27 04:37:35;;;;;;;3.40;3.10;;;23.10;68.40;;;;;;5004961;28;20033;-67
2023/08/27 04:40:03;;;;;;;2.72;2.40;;;23.10;68.60;;;;;;5004052;28;20030;-67
2023/08/27 04:42:28;;;;;;;3.78;2.92;;;23.10;68.50;;;;;;5008103;28;20508;-66
2023/08/27 04:44:54;;;;;;;3.78;2.70;;;23.10;68.40;;;;;;4981747;28;20059;-67
2023/08/27 04:47:19;;;;;;;2.72;2.50;;;23.00;68.80;;;;;;5004170;28;20034;-67
2023/08/27 04:49:45;;;;;;;4.63;2.72;;;23.00;69.00;;;;;;4987413;28;20042;-67
2023/08/27 04:52:10;;;;;;;3.00;2.70;;;23.00;68.80;;;;;;4995338;28;20030;-68
2023/08/27 04:54:36;;;;;;;2.72;2.50;;;23.10;69.10;;;;;;5002608;28;20045;-66
2023/08/27 04:57:02;;;;;;;2.65;2.45;;;23.10;68.40;;;;;;5001565;28;20034;-67
2023/08/27 04:59:27;;;;;;;3.30;2.30;;;23.10;68.60;;;;;;4998839;28;20057;-67
2023/08/27 05:01:55;;;;;;;3.13;2.78;;;23.10;68.60;;;;;;4999141;28;20034;-67
2023/08/27 05:04:20;;;;;;;4.72;2.88;;;23.10;68.50;;;;;;5001051;28;20038;-67
2023/08/27 05:06:46;;;;;;;3.22;2.78;;;23.10;68.70;;;;;;5005337;28;20036;-67
2023/08/27 05:09:11;;;;;;;3.08;2.30;;;23.10;68.60;;;;;;5006754;28;20022;-67
2023/08/27 05:11:37;;;;;;;5.00;2.85;;;23.10;68.50;;;;;;4979526;28;20120;-67
2023/08/27 05:14:02;;;;;;;4.10;2.60;;;23.10;68.60;;;;;;5006022;28;20129;-67
2023/08/27 05:16:29;;;;;;;2.85;2.40;;;23.10;68.40;;;;;;5005706;28;20030;-66
2023/08/27 05:18:54;;;;;;;2.90;2.70;;;23.10;68.40;;;;;;5009222;28;20041;-67
2023/08/27 05:21:20;;;;;;;2.95;2.60;;;23.00;68.40;;;;;;4986872;28;20138;-67
2023/08/27 05:23:46;;;;;;;2.53;2.33;;;23.00;68.30;;;;;;5003957;28;20073;-67
2023/08/27 05:26:11;;;;;;;2.95;2.45;;;23.10;68.40;;;;;;5004210;28;20117;-68
2023/08/27 05:28:37;;;;;;;3.28;2.25;;;23.10;68.30;;;;;;4986725;28;20056;-67
2023/08/27 05:31:03;;;;;;;3.55;2.17;;;23.10;68.40;;;;;;5004231;28;20034;-66
2023/08/27 05:33:29;;;;;;;3.00;2.40;;;23.10;68.40;;;;;;5004122;28;20034;-67
2023/08/27 05:35:54;;;;;;;2.42;2.22;;;23.10;68.60;;;;;;5003867;28;20034;-68
2023/08/27 05:38:20;;;;;;;3.33;2.40;;;23.00;68.60;;;;;;4998051;28;20073;-67
2023/08/27 05:40:46;;;;;;;4.00;2.30;;;23.10;68.70;;;;;;5005702;28;20029;-67
2023/08/27 05:43:11;;;;;;;2.95;2.35;;;23.10;68.50;;;;;;5002040;28;20061;-67
2023/08/27 05:45:37;;;;;;;2.97;2.22;;;23.00;68.60;;;;;;4989551;28;20113;-67
2023/08/27 05:48:03;;;;;;;2.75;2.55;;;23.00;68.30;;;;;;4984756;28;20449;-67
2023/08/27 05:50:29;;;;;;;2.42;2.22;;;23.10;68.70;;;;;;4999519;28;20095;-66
2023/08/27 05:52:54;;;;;;;2.30;2.10;;;23.00;68.80;;;;;;4995566;28;20029;-67
2023/08/27 05:55:20;;;;;;;3.65;2.58;;;23.00;68.50;;;;;;4982993;28;20034;-67
2023/08/27 05:57:45;;;;;;;10.40;3.35;;;23.10;68.90;;;;;;5000306;28;20129;-66
2023/08/27 06:00:13;;;;;;;3.63;2.50;;;23.00;69.50;;;;;;4998682;28;20125;-67
2023/08/27 06:02:39;;;;;;;6.38;3.22;;;22.90;69.50;;;;;;4984065;28;20133;-67
2023/08/27 06:05:04;;;;;;;4.95;2.95;;;22.90;69.50;;;;;;4999296;28;20514;-67
2023/08/27 06:07:30;;;;;;;6.72;3.30;;;22.90;69.60;;;;;;4985107;28;20046;-67
2023/08/27 06:09:56;;;;;;;5.47;3.40;;;22.90;69.50;;;;;;5006602;28;20026;-68
2023/08/27 06:12:21;;;;;;;3.30;2.80;;;22.90;69.60;;;;;;4996121;28;20513;-70
2023/08/27 06:14:46;;;;;;;5.75;3.10;;;23.00;69.70;;;;;;5002368;28;20120;-69
2023/08/27 06:17:12;;;;;;;4.25;3.42;;;23.00;69.70;;;;;;5001524;28;20467;-70
2023/08/27 06:19:38;;;;;;;14.35;6.97;;;23.00;69.50;;;;;;4998515;28;20058;-71
2023/08/27 06:22:04;;;;;;;20.65;10.35;;;23.00;69.90;;;;;;5000108;28;20040;-67
2023/08/27 06:24:29;;;;;;;24.63;12.68;;;23.00;69.70;;;;;;4992970;28;20042;-68
2023/08/27 06:26:55;;;;;;;19.02;11.45;;;23.10;69.50;;;;;;5000499;28;20046;-69
2023/08/27 06:29:20;;;;;;;19.10;10.57;;;23.10;69.90;;;;;;4998440;28;20045;-71
2023/08/27 06:31:46;;;;;;;17.13;10.98;;;23.10;69.60;;;;;;5006508;28;20029;-69
2023/08/27 06:34:12;;;;;;;16.60;9.80;;;23.10;69.00;;;;;;5003307;28;20033;-70
2023/08/27 06:36:38;;;;;;;13.38;7.07;;;23.10;70.10;;;;;;5008360;28;20030;-71
2023/08/27 06:39:04;;;;;;;9.90;6.32;;;23.10;70.00;;;;;;4986722;28;20026;-69
2023/08/27 06:41:30;;;;;;;5.72;4.63;;;23.10;70.00;;;;;;5008328;28;20026;-70
2023/08/27 06:43:55;;;;;;;7.55;4.38;;;23.00;70.00;;;;;;4991029;28;20026;-70
2023/08/27 06:46:21;;;;;;;3.83;3.42;;;23.10;70.20;;;;;;5002502;28;20057;-70
2023/08/27 06:48:46;;;;;;;6.85;4.10;;;23.00;70.10;;;;;;4999577;28;20022;-69
2023/08/27 06:51:12;;;;;;;4.20;3.60;;;23.00;69.80;;;;;;5001670;28;20446;-70
2023/08/27 06:53:37;;;;;;;3.78;3.22;;;23.00;69.50;;;;;;5002484;28;20112;-70
2023/08/27 06:56:03;;;;;;;3.95;3.08;;;23.00;69.80;;;;;;5000655;28;20025;-69
2023/08/27 06:58:29;;;;;;;3.65;3.08;;;23.00;69.60;;;;;;5001252;28;20094;-67
2023/08/27 07:00:55;;;;;;;3.97;3.38;;;23.00;69.30;;;;;;5007067;28;20108;-67
2023/08/27 07:03:20;;;;;;;4.78;3.53;;;23.00;69.90;;;;;;4998234;28;20034;-67
2023/08/27 07:05:46;;;;;;;6.57;3.88;;;23.00;70.00;;;;;;4997268;28;20022;-67
2023/08/27 07:08:11;;;;;;;4.90;3.38;;;23.00;69.80;;;;;;4998874;28;20546;-67
2023/08/27 07:10:37;;;;;;;5.35;3.60;;;23.00;69.60;;;;;;4998917;28;20168;-68
2023/08/27 07:13:04;;;;;;;3.63;2.72;;;23.00;69.10;;;;;;4997239;28;20472;-68
2023/08/27 07:15:29;;;;;;;4.20;2.88;;;23.10;69.50;;;;;;4976735;28;20080;-67
2023/08/27 07:17:55;;;;;;;6.03;4.25;;;23.10;69.50;;;;;;4991914;28;20034;-70
2023/08/27 07:20:22;;;;;;;8.90;4.97;;;23.00;69.80;;;;;;4990381;28;20027;-67
2023/08/27 07:22:48;;;;;;;14.93;7.38;;;23.00;70.10;;;;;;4981213;28;21120;-67
2023/08/27 07:25:14;;;;;;;8.90;5.18;;;22.90;70.20;;;;;;5000023;28;20033;-68
2023/08/27 07:27:39;;;;;;;7.00;4.57;;;22.90;71.00;;;;;;4994133;28;20060;-68
2023/08/27 07:30:06;;;;;;;6.30;4.60;;;22.90;71.80;;;;;;4982461;28;20054;-68
2023/08/27 07:32:31;;;;;;;7.35;4.55;;;22.80;71.90;;;;;;4986636;28;20037;-68
2023/08/27 07:34:57;;;;;;;7.75;4.63;;;22.80;72.10;;;;;;4976911;28;20026;-68
2023/08/27 07:37:23;;;;;;;6.93;4.63;;;22.80;72.10;;;;;;4999605;28;20034;-68
2023/08/27 07:39:49;;;;;;;7.10;4.57;;;22.80;72.10;;;;;;4996995;28;20049;-68
2023/08/27 07:42:14;;;;;;;7.85;4.55;;;22.80;71.90;;;;;;5002615;28;20370;-67
2023/08/27 07:44:40;;;;;;;7.30;4.28;;;22.70;71.60;;;;;;4982425;28;20030;-67
2023/08/27 07:47:05;;;;;;;8.95;5.10;;;22.70;71.60;;;;;;5000139;28;20388;-68
2023/08/27 07:49:31;;;;;;;6.78;4.28;;;22.60;71.60;;;;;;4981944;28;20173;-68
2023/08/27 07:51:57;;;;;;;4.85;4.38;;;22.60;71.40;;;;;;4983446;28;20034;-68
2023/08/27 07:54:22;;;;;;;5.30;4.13;;;22.60;70.90;;;;;;4981192;28;20041;-68
2023/08/27 07:56:48;;;;;;;4.10;3.38;;;22.70;70.70;;;;;;4991293;28;20033;-68
2023/08/27 07:59:13;;;;;;;6.35;4.30;;;22.70;70.70;;;;;;5006420;28;20497;-68
2023/08/27 08:01:39;;;;;;;6.10;3.90;;;22.60;70.80;;;;;;5000020;28;20770;-67
2023/08/27 08:04:04;;;;;;;4.85;3.60;;;22.60;70.60;;;;;;4995385;28;20077;-68
2023/08/27 08:06:30;;;;;;;3.47;3.17;;;22.60;70.00;;;;;;4999582;28;20041;-67
2023/08/27 08:08:55;;;;;;;5.78;3.53;;;22.60;70.10;;;;;;5005950;28;20493;-68
2023/08/27 08:11:21;;;;;;;5.03;3.15;;;22.60;70.10;;;;;;4988189;28;20033;-68
2023/08/27 08:13:47;;;;;;;5.55;3.15;;;22.50;70.00;;;;;;4999759;28;20093;-67
2023/08/27 08:16:12;;;;;;;4.47;2.92;;;22.50;70.00;;;;;;4982271;28;20026;-67
2023/08/27 08:18:38;;;;;;;3.58;2.50;;;22.50;69.80;;;;;;4996956;28;20034;-68
2023/08/27 08:21:04;;;;;;;3.40;2.92;;;22.50;69.80;;;;;;4992439;28;20092;-67
2023/08/27 08:23:30;;;;;;;4.05;2.58;;;22.50;69.90;;;;;;4993434;28;20046;-67
2023/08/27 08:25:58;;;;;;;3.90;2.60;;;22.50;69.70;;;;;;4990366;28;20034;-68
2023/08/27 08:28:23;;;;;;;4.68;3.20;;;22.50;69.50;;;;;;4993731;28;20033;-67
2023/08/27 08:30:49;;;;;;;3.35;2.58;;;22.50;69.30;;;;;;4995413;28;20034;-67
2023/08/27 08:33:16;;;;;;;2.72;2.20;;;22.50;68.60;;;;;;4993893;28;20117;-67
2023/08/27 08:35:42;;;;;;;4.93;3.28;;;22.50;68.40;;;;;;4994940;28;20038;-69
2023/08/27 08:38:08;;;;;;;5.60;2.88;;;22.50;68.60;;;;;;5009135;28;20030;-67
2023/08/27 08:40:41;;;;;;;5.20;2.25;;;22.50;68.60;;;;;;4982695;28;20088;-67
2023/08/27 08:43:10;;;;;;;4.00;2.67;;;22.50;68.80;;;;;;4995014;28;20045;-67
2023/08/27 08:46:01;;;;;;;4.18;2.50;;;22.50;69.00;;;;;;5001411;28;20464;-67
2023/08/27 08:48:30;;;;;;;3.63;2.63;;;22.50;68.90;;;;;;5006097;28;20018;-68
2023/08/27 08:50:57;;;;;;;4.90;2.47;;;22.50;69.00;;;;;;4998117;28;20072;-68
2023/08/27 08:53:25;;;;;;;2.45;2.25;;;22.50;69.10;;;;;;4994881;28;20030;-68
2023/08/27 08:55:57;;;;;;;4.70;2.67;;;22.50;69.20;;;;;;4997965;28;20329;-67
2023/08/27 08:58:28;;;;;;;4.25;2.42;;;22.50;69.40;;;;;;5005319;28;20026;-67
2023/08/27 09:00:56;;;;;;;3.47;2.58;;;22.50;69.60;;;;;;4984585;28;20033;-68
2023/08/27 09:03:22;;;;;;;3.13;2.50;;;22.50;69.60;;;;;;5004354;28;20133;-68
2023/08/27 09:05:52;;;;;;;4.95;2.67;;;22.50;69.70;;;;;;4999356;28;20030;-66
2023/08/27 09:08:19;;;;;;;6.10;2.50;;;22.50;69.70;;;;;;5000631;28;20030;-68
2023/08/27 09:10:46;;;;;;;2.75;1.92;;;22.50;69.80;;;;;;5002332;28;20057;-68
2023/08/27 09:13:16;;;;;;;2.65;2.13;;;22.50;69.60;;;;;;4999818;28;20355;-69
2023/08/27 09:15:41;;;;;;;4.78;2.28;;;22.60;69.50;;;;;;5001916;28;20188;-69
2023/08/27 09:18:07;;;;;;;4.75;2.58;;;22.50;69.10;;;;;;4996419;28;20097;-67
2023/08/27 09:20:32;;;;;;;6.68;3.05;;;22.60;69.10;;;;;;4998091;28;20022;-67
2023/08/27 09:22:58;;;;;;;4.53;2.35;;;22.50;69.00;;;;;;5002382;28;20503;-67
2023/08/27 09:25:24;;;;;;;4.13;2.47;;;22.50;69.00;;;;;;4994926;28;20634;-68
2023/08/27 09:27:49;;;;;;;4.05;2.45;;;22.50;69.40;;;;;;4999554;28;20041;-67
2023/08/27 09:30:15;;;;;;;6.93;2.60;;;22.60;69.90;;;;;;4986415;28;20418;-68
2023/08/27 09:32:45;;;;;;;3.00;2.47;;;22.60;69.80;;;;;;5000975;28;20145;-68
2023/08/27 09:35:11;;;;;;;3.97;2.90;;;22.50;69.90;;;;;;4998961;28;20161;-66
2023/08/27 09:37:39;;;;;;;4.82;2.67;;;22.50;69.80;;;;;;4994796;28;20109;-67
2023/08/27 09:40:09;;;;;;;3.28;2.25;;;22.50;70.20;;;;;;4981471;28;20520;-68
2023/08/27 09:42:34;;;;;;;3.92;2.22;;;22.50;70.20;;;;;;4996564;28;20084;-69
2023/08/27 09:45:00;;;;;;;4.80;2.85;;;22.50;70.20;;;;;;5002577;28;20026;-69
2023/08/27 09:47:39;;;;;;;4.38;2.70;;;22.50;70.40;;;;;;4973850;28;20035;-68
2023/08/27 09:50:15;;;;;;;5.43;3.05;;;22.50;70.70;;;;;;4999178;28;20120;-69
2023/08/27 09:52:41;;;;;;;4.35;2.67;;;22.50;71.00;;;;;;5001135;28;20038;-68
2023/08/27 09:55:13;;;;;;;6.03;2.65;;;22.50;71.10;;;;;;4996800;28;20373;-68
2023/08/27 09:57:39;;;;;;;4.47;3.25;;;22.50;70.90;;;;;;4995832;28;20110;-68
2023/08/27 10:00:11;;;;;;;5.47;3.00;;;22.50;70.70;;;;;;4999321;28;20030;-68
2023/08/27 10:02:37;;;;;;;3.97;3.05;;;22.50;70.90;;;;;;4996837;28;20509;-68
2023/08/27 10:05:08;;;;;;;4.90;2.97;;;22.50;70.90;;;;;;4998321;28;20137;-69
2023/08/27 10:07:33;;;;;;;3.20;2.63;;;22.50;71.10;;;;;;4992780;28;20342;-69
2023/08/27 10:09:59;;;;;;;4.68;3.45;;;22.50;71.40;;;;;;4998705;28;20054;-71
2023/08/27 10:12:25;;;;;;;5.10;3.03;;;22.50;71.40;;;;;;4995371;28;20213;-68
2023/08/27 10:14:50;;;;;;;4.53;2.60;;;22.50;71.40;;;;;;4977248;28;20521;-69
2023/08/27 10:17:16;;;;;;;5.18;3.80;;;22.50;71.60;;;;;;4975323;28;20045;-69
2023/08/27 10:19:42;;;;;;;4.45;2.78;;;22.40;71.30;;;;;;5001254;28;20404;-70
2023/08/27 10:22:08;;;;;;;5.32;3.53;;;22.40;71.60;;;;;;4993011;28;20053;-70
2023/08/27 10:24:34;;;;;;;6.38;3.40;;;22.40;71.50;;;;;;4995337;28;20041;-68
2023/08/27 10:27:04;;;;;;;3.92;3.03;;;22.50;71.50;;;;;;4983767;28;20034;-67
2023/08/27 10:29:30;;;;;;;3.78;2.95;;;22.50;71.60;;;;;;4998255;28;20105;-67
2023/08/27 10:31:56;;;;;;;5.60;3.03;;;22.40;71.50;;;;;;4997938;28;20030;-70
2023/08/27 10:34:23;;;;;;;7.53;3.00;;;22.50;71.40;;;;;;4998479;28;20053;-67
2023/08/27 10:36:51;;;;;;;5.53;3.03;;;22.50;71.50;;;;;;4993520;28;20128;-68
2023/08/27 10:39:26;;;;;;;4.47;2.83;;;22.50;71.40;;;;;;4980619;28;20034;-70
2023/08/27 10:41:52;;;;;;;7.68;2.67;;;22.50;71.60;;;;;;4996709;28;20042;-69
2023/08/27 10:44:21;;;;;;;4.20;2.85;;;22.50;71.60;;;;;;4993023;28;20026;-70
2023/08/27 10:47:07;;;;;;;6.43;3.63;;;22.50;71.80;;;;;;4996714;28;20037;-69
2023/08/27 10:49:37;;;;;;;;;;;22.50;71.40;;;;;;4991802;28;20541;-68
2023/08/27 10:52:18;;;;;;;4.63;3.00;;;22.50;72.10;;;;;;5000637;28;19910;-67
2023/08/27 10:54:57;;;;;;;4.78;2.90;;;22.50;72.40;;;;;;4998899;28;20025;-69
2023/08/27 10:57:23;;;;;;;3.78;2.35;;;22.50;72.30;;;;;;4997183;28;20026;-68
2023/08/27 10:59:49;;;;;;;3.08;2.80;;;22.50;72.10;;;;;;4977152;28;20549;-68
2023/08/27 11:02:16;;;;;;;5.32;3.05;;;22.50;72.10;;;;;;4996930;28;20493;-68
2023/08/27 11:04:51;;;;;;;5.57;3.22;;;22.50;72.40;;;;;;4993668;28;20116;-69
2023/08/27 11:07:22;;;;;;;4.38;3.22;;;22.50;72.30;;;;;;4997712;28;20115;-68
2023/08/27 11:09:55;;;;;;;5.40;3.75;;;22.60;72.40;;;;;;4993011;28;20122;-69
2023/08/27 11:12:24;;;;;;;3.75;2.40;;;22.60;72.40;;;;;;4993301;28;20030;-67
2023/08/27 11:14:52;;;;;;;8.05;4.03;;;22.60;72.20;;;;;;4997618;28;20290;-68
2023/08/27 11:17:28;;;;;;;3.92;3.08;;;22.60;72.70;;;;;;5001765;28;20037;-68
2023/08/27 11:19:57;;;;;;;5.80;3.33;;;22.60;73.20;;;;;;5000473;28;20026;-69
2023/08/27 11:22:24;;;;;;;4.32;3.08;;;22.60;72.60;;;;;;4999822;28;20077;-69
2023/08/27 11:24:54;;;;;;;5.60;3.50;;;22.60;72.30;;;;;;5001150;28;20041;-69
2023/08/27 11:27:22;;;;;;;4.75;3.08;;;22.70;71.60;;;;;;4977702;28;20035;-68
2023/08/27 11:29:51;;;;;;;3.20;2.70;;;22.70;72.40;;;;;;4997632;28;20030;-69
2023/08/27 11:32:17;;;;;;;3.75;3.05;;;22.80;72.50;;;;;;4997049;28;20112;-68
2023/08/27 11:34:44;;;;;;;4.28;2.90;;;22.70;74.30;;;;;;4979269;28;20029;-69
2023/08/27 11:37:10;;;;;;;4.63;2.92;;;22.80;74.10;;;;;;4993747;28;20085;-69
2023/08/27 11:39:37;;;;;;;3.33;2.85;;;22.80;73.80;;;;;;4994589;28;20125;-68
2023/08/27 11:42:14;;;;;;;5.53;3.47;;;22.70;73.50;;;;;;4997621;28;20055;-69
2023/08/27 11:45:06;;;;;;;3.97;2.90;;;22.60;74.00;;;;;;4998772;28;20516;-71
2023/08/27 11:47:31;;;;;;;4.63;2.80;;;22.70;73.40;;;;;;4994579;28;20119;-69
2023/08/27 11:49:58;;;;;;;4.78;2.88;;;22.70;73.00;;;;;;4998266;28;20698;-68
2023/08/27 11:52:24;;;;;;;3.65;2.72;;;22.80;72.50;;;;;;4985911;28;20378;-67
2023/08/27 11:54:50;;;;;;;4.93;2.40;;;22.80;73.10;;;;;;5003648;28;20022;-68
2023/08/27 11:57:16;;;;;;;3.95;2.10;;;22.70;73.60;;;;;;5003288;28;20113;-68
2023/08/27 11:59:42;;;;;;;4.28;2.65;;;22.60;72.50;;;;;;4995750;28;20512;-68
2023/08/27 12:02:11;;;;;;;7.35;2.97;;;22.60;72.20;;;;;;5000744;28;20121;-68
2023/08/27 12:04:37;;;;;;;4.50;2.67;;;22.60;71.90;;;;;;4994203;28;20045;-69
2023/08/27 12:07:05;;;;;;;4.18;2.40;;;22.50;71.40;;;;;;4981486;28;20038;-67
2023/08/27 12:09:33;;;;;;;4.63;2.60;;;22.50;70.90;;;;;;4997568;28;20030;-68
2023/08/27 12:12:04;;;;;;;3.88;2.25;;;22.50;70.90;;;;;;4985792;28;20568;-70
2023/08/27 12:14:30;;;;;;;3.80;2.25;;;22.50;70.90;;;;;;4999059;28;20045;-68
2023/08/27 12:17:07;;;;;;;4.90;2.88;;;22.50;70.90;;;;;;5001343;28;20044;-69
2023/08/27 12:19:34;;;;;;;3.30;2.38;;;22.50;70.50;;;;;;5001828;28;20069;-68
2023/08/27 12:21:59;;;;;;;4.97;2.17;;;22.60;70.80;;;;;;4999556;28;20548;-70
2023/08/27 12:24:41;;;;;;;4.82;2.72;;;22.50;69.40;;;;;;4985671;28;20075;-66
2023/08/27 12:27:08;;;;;;;3.00;1.90;;;22.60;68.00;;;;;;4998979;28;20357;-68
2023/08/27 12:29:38;;;;;;;3.95;1.80;;;22.50;67.70;;;;;;4986800;28;20817;-69
2023/08/27 12:32:07;;;;;;;4.82;2.35;;;22.50;66.40;;;;;;4980634;28;20131;-68
2023/08/27 12:34:35;;;;;;;4.35;1.70;;;22.50;67.10;;;;;;5002262;28;20058;-69
2023/08/27 12:37:01;;;;;;;2.63;1.83;;;22.40;65.60;;;;;;5006452;28;20084;-69
2023/08/27 12:39:27;;;;;;;2.70;1.98;;;22.40;65.30;;;;;;5005323;28;20038;-66
2023/08/27 12:41:52;;;;;;;5.53;1.50;;;22.40;65.50;;;;;;4986318;28;20104;-67
2023/08/27 12:44:18;;;;;;;2.72;1.40;;;22.30;65.90;;;;;;5008382;28;20030;-68